createdAt,value
2022-08-05T00:00:50.208Z,0.00
2022-08-05T00:01:48.842Z,0.00
2022-08-05T00:02:50.476Z,0.00
2022-08-05T00:03:46.961Z,0.00
2022-08-05T00:04:46.966Z,0.00
2022-08-05T00:06:04.801Z,0.00
2022-08-05T00:06:51.905Z,0.00
2022-08-05T00:08:00.291Z,0.00
2022-08-05T00:08:47.894Z,0.00
2022-08-05T00:09:46.904Z,0.00
2022-08-05T00:10:46.881Z,0.00
2022-08-05T00:11:48.349Z,0.00
2022-08-05T00:12:56.679Z,0.00
2022-08-05T00:13:52.943Z,0.00
2022-08-05T00:14:47.845Z,0.00
2022-08-05T00:15:55.227Z,0.00
2022-08-05T00:16:53.435Z,0.00
2022-08-05T00:17:47.811Z,0.00
2022-08-05T00:18:46.789Z,0.00
2022-08-05T00:20:02.158Z,0.00
2022-08-05T00:20:47.778Z,0.00
2022-08-05T00:21:46.789Z,0.00
2022-08-05T00:22:47.212Z,0.00
2022-08-05T00:23:53.582Z,0.00
2022-08-05T00:24:47.737Z,0.00
2022-08-05T00:25:47.718Z,0.00
2022-08-05T00:26:50.813Z,0.00
2022-08-05T00:27:47.709Z,0.00
2022-08-05T00:28:46.702Z,0.00
2022-08-05T00:29:46.689Z,0.00
2022-08-05T00:30:46.661Z,0.00
2022-08-05T00:32:10.032Z,0.00
2022-08-05T00:32:47.644Z,0.00
2022-08-05T00:34:56.662Z,0.00
2022-08-05T00:35:04.538Z,0.00
2022-08-05T00:35:47.773Z,0.00
2022-08-05T00:37:11.791Z,0.00
2022-08-05T00:37:53.468Z,0.00
2022-08-05T00:38:47.565Z,0.00
2022-08-05T00:39:58.850Z,0.00
2022-08-05T00:40:51.959Z,0.00
2022-08-05T00:41:55.114Z,0.00
2022-08-05T00:42:48.219Z,0.00
2022-08-05T00:43:49.851Z,0.00
2022-08-05T00:44:46.502Z,0.00
2022-08-05T00:45:46.514Z,0.00
2022-08-05T00:46:46.482Z,0.00
2022-08-05T00:47:57.043Z,0.00
2022-08-05T00:48:50.779Z,0.00
2022-08-05T00:49:51.687Z,0.00
2022-08-05T00:50:47.446Z,0.00
2022-08-05T00:51:50.728Z,0.00
2022-08-05T00:52:47.417Z,0.00
2022-08-05T00:54:02.578Z,0.00
2022-08-05T00:54:47.425Z,0.00
2022-08-05T00:55:46.418Z,0.00
2022-08-05T00:56:51.510Z,0.00
2022-08-05T00:57:58.100Z,0.00
2022-08-05T00:58:47.400Z,0.00
2022-08-05T00:59:46.346Z,0.00
2022-08-05T01:00:46.609Z,0.00
2022-08-05T01:01:48.565Z,0.00
2022-08-05T01:02:46.311Z,0.00
2022-08-05T01:03:46.299Z,0.00
2022-08-05T01:04:50.406Z,0.00
2022-08-05T01:05:46.288Z,0.00
2022-08-05T01:06:48.546Z,0.00
2022-08-05T01:08:30.344Z,0.00
2022-08-05T01:08:47.542Z,0.00
2022-08-05T01:09:46.238Z,0.00
2022-08-05T01:10:52.454Z,0.00
2022-08-05T01:11:47.214Z,0.00
2022-08-05T01:13:05.242Z,0.00
2022-08-05T01:13:57.557Z,0.00
2022-08-05T01:14:47.190Z,0.00
2022-08-05T01:15:47.811Z,0.00
2022-08-05T01:16:46.178Z,0.00
2022-08-05T01:17:46.137Z,0.00
2022-08-05T01:18:48.191Z,0.00
2022-08-05T01:20:01.366Z,0.00
2022-08-05T01:20:47.112Z,0.00
2022-08-05T01:21:50.645Z,0.00
2022-08-05T01:22:47.064Z,0.00
2022-08-05T01:23:46.082Z,0.00
2022-08-05T01:24:47.071Z,0.00
2022-08-05T01:25:50.258Z,0.00
2022-08-05T01:26:47.098Z,0.00
2022-08-05T01:27:55.414Z,0.00
2022-08-05T01:28:47.011Z,0.00
2022-08-05T01:29:46.011Z,0.00
2022-08-05T01:30:49.221Z,0.00
2022-08-05T01:31:46.982Z,0.00
2022-08-05T01:32:45.974Z,0.00
2022-08-05T01:33:48.933Z,0.00
2022-08-05T01:34:45.934Z,0.00
2022-08-05T01:35:51.259Z,0.00
2022-08-05T01:36:47.661Z,0.00
2022-08-05T01:37:45.943Z,0.00
2022-08-05T01:38:45.904Z,0.00
2022-08-05T01:39:47.829Z,0.00
2022-08-05T01:40:45.895Z,0.00
2022-08-05T01:41:45.875Z,0.00
2022-08-05T01:42:45.871Z,0.00
2022-08-05T01:43:45.874Z,0.00
2022-08-05T01:44:45.842Z,0.00
2022-08-05T01:45:46.846Z,0.00
2022-08-05T01:46:46.833Z,0.00
2022-08-05T01:47:45.827Z,0.00
2022-08-05T01:48:45.796Z,0.00
2022-08-05T01:50:01.535Z,0.00
2022-08-05T01:50:51.073Z,0.00
2022-08-05T01:51:51.842Z,0.00
2022-08-05T01:52:49.950Z,0.00
2022-08-05T01:53:57.102Z,0.00
2022-08-05T01:54:46.738Z,0.00
2022-08-05T01:55:46.726Z,0.00
2022-08-05T01:58:09.705Z,0.00
2022-08-05T01:58:11.438Z,0.00
2022-08-05T01:58:47.032Z,0.00
2022-08-05T01:59:47.272Z,0.00
2022-08-05T02:00:45.658Z,0.00
2022-08-05T02:01:45.714Z,0.00
2022-08-05T02:02:46.496Z,0.00
2022-08-05T02:03:46.626Z,0.00
2022-08-05T02:04:46.312Z,0.00
2022-08-05T02:05:45.619Z,0.00
2022-08-05T02:06:45.591Z,0.00
2022-08-05T02:08:00.233Z,0.00
2022-08-05T02:08:57.847Z,0.00
2022-08-05T02:09:46.591Z,0.00
2022-08-05T02:10:45.558Z,0.00
2022-08-05T02:11:47.044Z,0.00
2022-08-05T02:12:45.531Z,0.00
2022-08-05T02:13:53.457Z,0.00
2022-08-05T02:14:47.094Z,0.00
2022-08-05T02:15:45.511Z,0.00
2022-08-05T02:16:45.490Z,0.00
2022-08-05T02:18:27.625Z,0.00
2022-08-05T02:18:46.451Z,0.00
2022-08-05T02:19:47.521Z,0.00
2022-08-05T02:20:46.888Z,0.00
2022-08-05T02:21:46.893Z,0.00
2022-08-05T02:22:45.431Z,0.00
2022-08-05T02:23:45.999Z,0.00
2022-08-05T02:24:45.395Z,0.00
2022-08-05T02:25:49.246Z,0.00
2022-08-05T02:26:53.996Z,0.00
2022-08-05T02:27:58.000Z,0.00
2022-08-05T02:28:46.374Z,0.00
2022-08-05T02:29:58.487Z,0.00
2022-08-05T02:30:54.285Z,0.00
2022-08-05T02:31:46.323Z,0.00
2022-08-05T02:32:45.303Z,0.00
2022-08-05T02:33:45.294Z,0.00
2022-08-05T02:34:45.283Z,0.00
2022-08-05T02:35:57.543Z,0.00
2022-08-05T02:36:46.255Z,0.00
2022-08-05T02:37:47.664Z,0.00
2022-08-05T02:38:53.460Z,0.00
2022-08-05T02:39:47.646Z,0.00
2022-08-05T02:40:46.226Z,0.00
2022-08-05T02:42:00.916Z,0.00
2022-08-05T02:42:53.106Z,0.00
2022-08-05T02:44:02.316Z,0.00
2022-08-05T02:44:46.169Z,0.00
2022-08-05T02:45:52.519Z,0.00
2022-08-05T02:46:58.387Z,0.00
2022-08-05T02:48:06.688Z,0.00
2022-08-05T02:48:46.126Z,0.00
2022-08-05T02:49:45.115Z,0.00
2022-08-05T02:50:45.132Z,0.00
2022-08-05T02:52:02.634Z,0.00
2022-08-05T02:52:46.086Z,0.00
2022-08-05T02:53:45.067Z,0.00
2022-08-05T02:54:51.160Z,0.00
2022-08-05T02:55:53.753Z,0.00
2022-08-05T02:56:46.147Z,0.00
2022-08-05T02:58:09.653Z,0.00
2022-08-05T02:58:51.535Z,0.00
2022-08-05T02:59:50.162Z,0.00
2022-08-05T03:00:46.144Z,0.00
2022-08-05T03:01:45.143Z,0.00
2022-08-05T03:02:45.007Z,0.00
2022-08-05T03:04:02.821Z,0.00
2022-08-05T03:04:45.951Z,0.00
2022-08-05T03:06:56.815Z,0.00
2022-08-05T03:06:57.253Z,0.00
2022-08-05T03:08:01.008Z,0.00
2022-08-05T03:08:45.909Z,0.00
2022-08-05T03:09:51.735Z,0.00
2022-08-05T03:11:45.949Z,0.00
2022-08-05T03:11:54.625Z,0.00
2022-08-05T03:12:45.872Z,0.00
2022-08-05T03:13:52.082Z,0.00
2022-08-05T03:14:46.323Z,0.00
2022-08-05T03:15:44.831Z,0.00
2022-08-05T03:16:44.824Z,0.00
2022-08-05T03:17:44.950Z,0.00
2022-08-05T03:18:44.804Z,0.00
2022-08-05T03:19:45.517Z,0.00
2022-08-05T03:20:48.907Z,0.00
2022-08-05T03:21:49.456Z,0.00
2022-08-05T03:22:49.871Z,0.00
2022-08-05T03:23:45.850Z,0.00
2022-08-05T03:24:44.737Z,0.00
2022-08-05T03:26:04.971Z,0.00
2022-08-05T03:26:45.788Z,0.00
2022-08-05T03:27:59.887Z,0.00
2022-08-05T03:28:45.711Z,0.00
2022-08-05T03:30:08.728Z,0.00
2022-08-05T03:30:45.664Z,0.00
2022-08-05T03:31:57.219Z,0.00
2022-08-05T03:32:45.663Z,0.00
2022-08-05T03:33:52.711Z,0.00
2022-08-05T03:34:50.360Z,0.00
2022-08-05T03:35:45.603Z,0.00
2022-08-05T03:36:44.605Z,0.00
2022-08-05T03:37:46.153Z,0.00
2022-08-05T03:38:44.595Z,0.00
2022-08-05T03:39:57.786Z,0.00
2022-08-05T03:40:48.584Z,0.00
2022-08-05T03:41:45.413Z,0.00
2022-08-05T03:42:52.535Z,0.00
2022-08-05T03:44:08.074Z,0.00
2022-08-05T03:44:45.529Z,0.00
2022-08-05T03:45:57.403Z,0.00
2022-08-05T03:46:45.496Z,0.00
2022-08-05T03:47:44.475Z,0.00
2022-08-05T03:48:45.397Z,0.00
2022-08-05T03:49:52.070Z,0.00
2022-08-05T03:50:45.513Z,0.00
2022-08-05T03:52:48.780Z,0.00
2022-08-05T03:54:59.384Z,0.00
2022-08-05T03:55:50.264Z,0.00
2022-08-05T03:56:00.898Z,0.00
2022-08-05T03:56:06.065Z,0.00
2022-08-05T03:56:46.392Z,0.00
2022-08-05T03:57:44.661Z,0.00
2022-08-05T03:58:44.740Z,0.00
2022-08-05T03:59:47.505Z,0.00
2022-08-05T04:00:46.399Z,0.00
2022-08-05T04:01:45.393Z,0.00
2022-08-05T04:02:52.322Z,0.00
2022-08-05T04:04:09.280Z,0.00
2022-08-05T04:04:45.292Z,0.00
2022-08-05T04:05:44.280Z,0.00
2022-08-05T04:06:47.995Z,0.00
2022-08-05T04:07:53.167Z,0.00
2022-08-05T04:08:45.240Z,0.00
2022-08-05T04:09:53.469Z,0.00
2022-08-05T04:10:45.306Z,0.00
2022-08-05T04:11:47.233Z,0.00
2022-08-05T04:13:15.140Z,0.00
2022-08-05T04:14:17.849Z,0.00
2022-08-05T04:15:15.568Z,0.00
2022-08-05T04:16:15.080Z,0.00
2022-08-05T04:17:15.065Z,0.00
2022-08-05T04:18:20.523Z,0.00
2022-08-05T04:19:16.040Z,0.00
2022-08-05T04:20:15.072Z,0.00
2022-08-05T04:21:45.727Z,0.00
2022-08-05T04:22:20.449Z,0.00
2022-08-05T04:23:16.314Z,0.00
2022-08-05T04:24:15.015Z,0.00
2022-08-05T04:25:14.980Z,0.00
2022-08-05T04:26:14.994Z,0.00
2022-08-05T04:27:15.279Z,0.00
2022-08-05T04:28:15.120Z,0.00
2022-08-05T04:29:14.927Z,0.00
2022-08-05T04:30:14.943Z,0.00
2022-08-05T04:31:14.927Z,0.00
2022-08-05T04:32:15.669Z,0.00
2022-08-05T04:33:15.896Z,0.00
2022-08-05T04:34:31.710Z,0.00
2022-08-05T04:35:17.678Z,0.00
2022-08-05T04:36:45.206Z,0.00
2022-08-05T04:37:16.626Z,0.00
2022-08-05T04:38:15.489Z,0.00
2022-08-05T04:39:14.976Z,0.00
2022-08-05T04:40:14.947Z,0.00
2022-08-05T04:41:14.975Z,0.00
2022-08-05T04:42:15.017Z,0.00
2022-08-05T04:44:13.428Z,0.00
2022-08-05T04:45:14.150Z,0.00
2022-08-05T04:46:28.158Z,0.00
2022-08-05T04:47:18.574Z,0.00
2022-08-05T04:48:18.588Z,0.00
2022-08-05T04:49:14.933Z,0.00
2022-08-05T04:50:13.360Z,0.00
2022-08-05T04:51:14.360Z,5.62
2022-08-05T04:52:13.368Z,5.62
2022-08-05T04:53:13.313Z,5.62
2022-08-05T04:54:13.320Z,5.62
2022-08-05T04:55:14.596Z,5.62
2022-08-05T04:56:33.789Z,5.62
2022-08-05T04:57:14.281Z,5.62
2022-08-05T04:58:13.274Z,5.62
2022-08-05T04:59:22.205Z,5.62
2022-08-05T05:00:14.294Z,5.62
2022-08-05T05:01:13.315Z,5.62
2022-08-05T05:02:41.353Z,5.62
2022-08-05T05:03:14.261Z,5.62
2022-08-05T05:04:14.205Z,5.62
2022-08-05T05:05:26.463Z,5.62
2022-08-05T05:06:40.280Z,5.62
2022-08-05T05:07:15.784Z,5.62
2022-08-05T05:08:14.112Z,5.62
2022-08-05T05:09:17.747Z,5.62
2022-08-05T05:10:13.145Z,11.25
2022-08-05T05:11:15.309Z,11.25
2022-08-05T05:12:13.145Z,11.25
2022-08-05T05:13:13.100Z,11.25
2022-08-05T05:14:16.166Z,11.25
2022-08-05T05:15:13.077Z,11.25
2022-08-05T05:16:13.076Z,11.25
2022-08-05T05:17:13.045Z,11.25
2022-08-05T05:18:13.097Z,5.62
2022-08-05T05:19:26.652Z,5.62
2022-08-05T05:20:14.057Z,5.62
2022-08-05T05:21:13.025Z,5.62
2022-08-05T05:22:23.382Z,5.62
2022-08-05T05:23:19.900Z,5.62
2022-08-05T05:24:13.977Z,5.62
2022-08-05T05:25:16.468Z,5.62
2022-08-05T05:26:12.957Z,5.62
2022-08-05T05:27:12.945Z,5.62
2022-08-05T05:28:12.972Z,5.62
2022-08-05T05:29:14.687Z,0.00
2022-08-05T05:30:15.274Z,0.00
2022-08-05T05:31:13.893Z,0.00
2022-08-05T05:32:15.772Z,0.00
2022-08-05T05:33:17.458Z,0.00
2022-08-05T05:34:12.898Z,0.00
2022-08-05T05:35:12.856Z,0.00
2022-08-05T05:36:14.628Z,0.00
2022-08-05T05:37:12.841Z,0.00
2022-08-05T05:38:14.009Z,0.00
2022-08-05T05:39:12.866Z,0.00
2022-08-05T05:40:12.802Z,0.00
2022-08-05T05:41:12.781Z,0.00
2022-08-05T05:42:12.784Z,0.00
2022-08-05T05:43:12.761Z,0.00
2022-08-05T05:44:35.980Z,0.00
2022-08-05T05:45:14.481Z,0.00
2022-08-05T05:46:17.648Z,0.00
2022-08-05T05:47:21.460Z,0.00
2022-08-05T05:48:15.948Z,0.00
2022-08-05T05:49:22.509Z,0.00
2022-08-05T05:50:16.276Z,0.00
2022-08-05T05:51:15.871Z,0.00
2022-08-05T05:52:26.349Z,0.00
2022-08-05T05:53:22.386Z,0.00
2022-08-05T05:54:13.662Z,5.62
2022-08-05T05:55:13.385Z,5.62
2022-08-05T05:56:12.642Z,11.25
2022-08-05T05:57:17.189Z,11.25
2022-08-05T05:58:13.605Z,11.25
2022-08-05T05:59:12.581Z,11.25
2022-08-05T06:00:12.594Z,5.62
2022-08-05T06:01:15.146Z,5.62
2022-08-05T06:02:12.554Z,5.62
2022-08-05T06:03:40.833Z,5.62
2022-08-05T06:04:14.509Z,5.62
2022-08-05T06:05:16.560Z,11.25
2022-08-05T06:06:12.523Z,11.25
2022-08-05T06:07:12.494Z,11.25
2022-08-05T06:08:12.506Z,11.25
2022-08-05T06:09:17.465Z,11.25
2022-08-05T06:10:13.486Z,11.25
2022-08-05T06:11:13.464Z,11.25
2022-08-05T06:12:12.447Z,11.25
2022-08-05T06:13:12.446Z,16.88
2022-08-05T06:14:12.426Z,16.88
2022-08-05T06:15:23.679Z,16.88
2022-08-05T06:16:29.146Z,16.88
2022-08-05T06:17:22.097Z,16.88
2022-08-05T06:18:13.378Z,22.50
2022-08-05T06:19:12.550Z,22.50
2022-08-05T06:20:21.423Z,22.50
2022-08-05T06:21:18.582Z,22.50
2022-08-05T06:22:13.346Z,22.50
2022-08-05T06:23:12.323Z,22.50
2022-08-05T06:24:12.807Z,22.50
2022-08-05T06:25:24.994Z,28.12
2022-08-05T06:26:21.705Z,28.12
2022-08-05T06:27:17.194Z,28.12
2022-08-05T06:28:21.576Z,33.75
2022-08-05T06:29:25.390Z,33.75
2022-08-05T06:30:16.931Z,33.75
2022-08-05T06:31:17.855Z,33.75
2022-08-05T06:32:21.393Z,33.75
2022-08-05T06:33:13.205Z,33.75
2022-08-05T06:34:13.198Z,28.12
2022-08-05T06:35:15.664Z,22.50
2022-08-05T06:36:13.171Z,22.50
2022-08-05T06:37:20.367Z,16.88
2022-08-05T06:38:13.158Z,22.50
2022-08-05T06:39:12.187Z,22.50
2022-08-05T06:40:12.140Z,22.50
2022-08-05T06:41:12.110Z,22.50
2022-08-05T06:42:12.110Z,28.12
2022-08-05T06:43:57.440Z,28.12
2022-08-05T06:44:13.100Z,28.12
2022-08-05T06:45:21.215Z,28.12
2022-08-05T06:46:13.069Z,28.12
2022-08-05T06:48:11.426Z,28.12
2022-08-05T06:48:52.816Z,22.50
2022-08-05T06:49:13.031Z,22.50
2022-08-05T06:50:12.035Z,22.50
2022-08-05T06:51:23.981Z,22.50
2022-08-05T06:52:38.043Z,16.88
2022-08-05T06:53:22.679Z,22.50
2022-08-05T06:54:18.179Z,22.50
2022-08-05T06:55:12.950Z,22.50
2022-08-05T06:56:26.677Z,22.50
2022-08-05T06:57:56.700Z,22.50
2022-08-05T06:58:30.037Z,22.50
2022-08-05T06:59:12.923Z,22.50
2022-08-05T07:00:11.902Z,22.50
2022-08-05T07:01:11.955Z,22.50
2022-08-05T07:02:11.882Z,22.50
2022-08-05T07:03:11.854Z,22.50
2022-08-05T07:04:12.241Z,22.50
2022-08-05T07:05:18.622Z,22.50
2022-08-05T07:06:14.404Z,22.50
2022-08-05T07:07:11.817Z,28.12
2022-08-05T07:08:11.815Z,28.12
2022-08-05T07:09:11.815Z,28.12
2022-08-05T07:10:14.943Z,28.12
2022-08-05T07:11:15.445Z,33.75
2022-08-05T07:12:11.775Z,33.75
2022-08-05T07:13:11.753Z,33.75
2022-08-05T07:14:15.836Z,33.75
2022-08-05T07:15:12.746Z,33.75
2022-08-05T07:16:12.727Z,39.38
2022-08-05T07:18:08.253Z,33.75
2022-08-05T07:18:20.387Z,33.75
2022-08-05T07:19:12.678Z,33.75
2022-08-05T07:20:32.191Z,33.75
2022-08-05T07:21:12.669Z,33.75
2022-08-05T07:22:11.687Z,28.12
2022-08-05T07:23:25.921Z,33.75
2022-08-05T07:24:12.632Z,28.12
2022-08-05T07:25:54.969Z,28.12
2022-08-05T07:26:13.272Z,22.50
2022-08-05T07:27:11.589Z,28.12
2022-08-05T07:28:17.285Z,28.12
2022-08-05T07:29:12.567Z,28.12
2022-08-05T07:30:24.367Z,22.50
2022-08-05T07:31:12.552Z,22.50
2022-08-05T07:32:11.568Z,22.50
2022-08-05T07:33:16.145Z,22.50
2022-08-05T07:34:13.959Z,28.12
2022-08-05T07:36:02.608Z,33.75
2022-08-05T07:36:20.569Z,33.75
2022-08-05T07:37:12.508Z,33.75
2022-08-05T07:38:12.135Z,33.75
2022-08-05T07:39:50.332Z,28.12
2022-08-05T07:40:32.048Z,28.12
2022-08-05T07:42:09.594Z,28.12
2022-08-05T07:42:15.176Z,28.12
2022-08-05T07:43:20.415Z,28.12
2022-08-05T07:44:19.163Z,28.12
2022-08-05T07:45:12.400Z,33.75
2022-08-05T07:46:24.791Z,28.12
2022-08-05T07:47:14.063Z,28.12
2022-08-05T07:48:11.371Z,28.12
2022-08-05T07:49:11.352Z,28.12
2022-08-05T07:50:11.344Z,28.12
2022-08-05T07:51:23.612Z,28.12
2022-08-05T07:52:12.320Z,28.12
2022-08-05T07:53:11.299Z,22.50
2022-08-05T07:54:11.511Z,22.50
2022-08-05T07:55:15.998Z,16.88
2022-08-05T07:56:39.360Z,16.88
2022-08-05T07:57:18.021Z,11.25
2022-08-05T07:58:17.801Z,5.62
2022-08-05T07:59:12.252Z,5.62
2022-08-05T08:00:11.539Z,0.00
2022-08-05T08:01:12.142Z,0.00
2022-08-05T08:02:16.881Z,0.00
2022-08-05T08:03:13.761Z,5.62
2022-08-05T08:04:11.216Z,5.62
2022-08-05T08:05:11.376Z,11.25
2022-08-05T08:06:11.164Z,11.25
2022-08-05T08:07:11.155Z,11.25
2022-08-05T08:08:12.483Z,5.62
2022-08-05T08:09:11.125Z,5.62
2022-08-05T08:10:11.126Z,5.62
2022-08-05T08:11:15.911Z,11.25
2022-08-05T08:12:28.541Z,16.88
2022-08-05T08:13:12.084Z,11.25
2022-08-05T08:14:11.080Z,11.25
2022-08-05T08:15:15.063Z,16.88
2022-08-05T08:16:35.618Z,22.50
2022-08-05T08:17:21.363Z,22.50
2022-08-05T08:18:14.197Z,16.88
2022-08-05T08:19:37.993Z,16.88
2022-08-05T08:20:42.926Z,11.25
2022-08-05T08:21:17.508Z,11.25
2022-08-05T08:22:11.969Z,11.25
2022-08-05T08:24:00.399Z,16.88
2022-08-05T08:24:14.049Z,16.88
2022-08-05T08:25:15.643Z,22.50
2022-08-05T08:26:11.929Z,22.50
2022-08-05T08:27:10.915Z,28.12
2022-08-05T08:28:18.880Z,28.12
2022-08-05T08:30:03.075Z,33.75
2022-08-05T08:30:29.903Z,33.75
2022-08-05T08:31:15.108Z,33.75
2022-08-05T08:32:11.856Z,33.75
2022-08-05T08:33:13.811Z,33.75
2022-08-05T08:34:10.932Z,33.75
2022-08-05T08:35:13.572Z,28.12
2022-08-05T08:36:30.178Z,22.50
2022-08-05T08:37:11.809Z,22.50
2022-08-05T08:38:16.481Z,22.50
2022-08-05T08:39:15.060Z,28.12
2022-08-05T08:40:11.772Z,28.12
2022-08-05T08:41:10.768Z,28.12
2022-08-05T08:42:32.351Z,22.50
2022-08-05T08:45:17.857Z,28.12
2022-08-05T08:45:20.670Z,22.50
2022-08-05T08:45:24.221Z,22.50
2022-08-05T08:46:15.598Z,28.12
2022-08-05T08:47:47.307Z,39.38
2022-08-05T08:48:42.921Z,39.38
2022-08-05T08:50:22.993Z,33.75
2022-08-05T08:50:31.103Z,33.75
2022-08-05T08:52:02.411Z,33.75
2022-08-05T08:52:13.626Z,39.38
2022-08-05T08:53:12.430Z,39.38
2022-08-05T08:54:10.617Z,39.38
2022-08-05T08:55:13.140Z,39.38
2022-08-05T08:56:10.610Z,39.38
2022-08-05T08:57:11.382Z,39.38
2022-08-05T08:58:10.560Z,33.75
2022-08-05T08:59:19.245Z,33.75
2022-08-05T09:00:11.551Z,33.75
2022-08-05T09:01:11.075Z,28.12
2022-08-05T09:02:11.522Z,28.12
2022-08-05T09:03:10.512Z,28.12
2022-08-05T09:04:10.712Z,28.12
2022-08-05T09:05:16.470Z,28.12
2022-08-05T09:06:13.793Z,33.75
2022-08-05T09:07:19.677Z,33.75
2022-08-05T09:08:11.482Z,39.38
2022-08-05T09:09:10.445Z,39.38
2022-08-05T09:10:10.426Z,39.38
2022-08-05T09:11:13.670Z,39.38
2022-08-05T09:12:20.546Z,39.38
2022-08-05T09:13:11.397Z,39.38
2022-08-05T09:14:58.932Z,39.38
2022-08-05T09:15:11.373Z,39.38
2022-08-05T09:16:14.699Z,39.38
2022-08-05T09:17:41.392Z,33.75
2022-08-05T09:18:13.457Z,33.75
2022-08-05T09:19:10.376Z,33.75
2022-08-05T09:20:10.313Z,33.75
2022-08-05T09:21:11.437Z,33.75
2022-08-05T09:22:21.999Z,33.75
2022-08-05T09:23:19.756Z,33.75
2022-08-05T09:24:11.286Z,39.38
2022-08-05T09:25:23.720Z,33.75
2022-08-05T09:26:11.246Z,33.75
2022-08-05T09:27:11.257Z,33.75
2022-08-05T09:28:11.228Z,33.75
2022-08-05T09:29:10.216Z,33.75
2022-08-05T09:30:10.198Z,28.12
2022-08-05T09:31:23.394Z,28.12
2022-08-05T09:32:41.454Z,33.75
2022-08-05T09:33:11.167Z,33.75
2022-08-05T09:34:11.145Z,33.75
2022-08-05T09:35:10.154Z,33.75
2022-08-05T09:36:11.733Z,33.75
2022-08-05T09:37:15.139Z,33.75
2022-08-05T09:38:17.916Z,33.75
2022-08-05T09:39:18.070Z,33.75
2022-08-05T09:40:11.119Z,28.12
2022-08-05T09:41:10.086Z,22.50
2022-08-05T09:42:13.644Z,22.50
2022-08-05T09:43:11.169Z,22.50
2022-08-05T09:44:11.198Z,22.50
2022-08-05T09:45:17.692Z,28.12
2022-08-05T09:46:11.963Z,28.12
2022-08-05T09:47:10.264Z,33.75
2022-08-05T09:48:09.992Z,39.38
2022-08-05T09:49:19.587Z,39.38
2022-08-05T09:50:10.973Z,39.38
2022-08-05T09:51:15.333Z,39.38
2022-08-05T09:52:10.969Z,33.75
2022-08-05T09:53:17.091Z,33.75
2022-08-05T09:54:10.968Z,39.38
2022-08-05T09:55:56.403Z,39.38
2022-08-05T09:56:12.699Z,39.38
2022-08-05T09:57:23.424Z,39.38
2022-08-05T09:58:10.904Z,39.38
2022-08-05T09:59:09.882Z,39.38
2022-08-05T10:00:10.898Z,39.38
2022-08-05T10:01:14.585Z,33.75
2022-08-05T10:02:10.884Z,33.75
2022-08-05T10:03:09.897Z,39.38
2022-08-05T10:04:10.328Z,39.38
2022-08-05T10:05:09.813Z,39.38
2022-08-05T10:06:15.628Z,39.38
2022-08-05T10:07:20.227Z,45.00
2022-08-05T10:08:36.707Z,45.00
2022-08-05T10:09:25.181Z,45.00
2022-08-05T10:10:15.612Z,45.00
2022-08-05T10:11:10.741Z,56.25
2022-08-05T10:12:30.643Z,50.62
2022-08-05T10:13:10.719Z,50.62
2022-08-05T10:14:09.755Z,50.62
2022-08-05T10:15:09.714Z,50.62
2022-08-05T10:16:09.686Z,45.00
2022-08-05T10:17:09.674Z,39.38
2022-08-05T10:18:10.663Z,39.38
2022-08-05T10:19:10.199Z,39.38
2022-08-05T10:20:10.958Z,39.38
2022-08-05T10:21:15.673Z,45.00
2022-08-05T10:22:25.323Z,45.00
2022-08-05T10:23:34.717Z,50.62
2022-08-05T10:24:12.839Z,56.25
2022-08-05T10:25:09.598Z,50.62
2022-08-05T10:26:14.210Z,45.00
2022-08-05T10:27:10.593Z,39.38
2022-08-05T10:28:17.309Z,39.38
2022-08-05T10:29:10.543Z,39.38
2022-08-05T10:31:19.959Z,39.38
2022-08-05T10:32:54.654Z,45.00
2022-08-05T10:32:55.162Z,45.00
2022-08-05T10:33:14.750Z,39.38
2022-08-05T10:34:09.576Z,39.38
2022-08-05T10:35:09.566Z,39.38
2022-08-05T10:36:09.459Z,39.38
2022-08-05T10:37:09.446Z,33.75
2022-08-05T10:38:11.746Z,33.75
2022-08-05T10:39:10.381Z,33.75
2022-08-05T10:40:17.867Z,39.38
2022-08-05T10:41:12.394Z,39.38
2022-08-05T10:42:09.378Z,39.38
2022-08-05T10:43:11.221Z,39.38
2022-08-05T10:44:09.447Z,39.38
2022-08-05T10:45:21.220Z,39.38
2022-08-05T10:46:10.493Z,39.38
2022-08-05T10:47:10.191Z,39.38
2022-08-05T10:48:30.704Z,39.38
2022-08-05T10:49:16.342Z,39.38
2022-08-05T10:50:31.537Z,39.38
2022-08-05T10:51:22.258Z,39.38
2022-08-05T10:52:10.686Z,39.38
2022-08-05T10:53:09.258Z,45.00
2022-08-05T10:54:28.271Z,50.62
2022-08-05T10:55:10.275Z,45.00
2022-08-05T10:56:21.347Z,45.00
2022-08-05T10:57:10.235Z,45.00
2022-08-05T10:58:09.199Z,50.62
2022-08-05T11:00:01.220Z,50.62
2022-08-05T11:00:12.144Z,50.62
2022-08-05T11:01:11.418Z,50.62
2022-08-05T11:02:14.614Z,56.25
2022-08-05T11:03:24.676Z,67.50
2022-08-05T11:04:10.135Z,67.50
2022-08-05T11:05:09.455Z,67.50
2022-08-05T11:06:16.074Z,84.38
2022-08-05T11:07:10.103Z,101.25
2022-08-05T11:08:33.862Z,106.88
2022-08-05T11:09:10.088Z,101.25
2022-08-05T11:10:10.274Z,78.75
2022-08-05T11:11:16.502Z,73.12
2022-08-05T11:12:10.084Z,67.50
2022-08-05T11:13:09.071Z,61.88
2022-08-05T11:14:09.056Z,61.88
2022-08-05T11:15:19.647Z,73.12
2022-08-05T11:16:10.070Z,67.50
2022-08-05T11:17:59.323Z,61.88
2022-08-05T11:18:11.804Z,67.50
2022-08-05T11:20:16.759Z,73.12
2022-08-05T11:20:18.307Z,73.12
2022-08-05T11:21:11.839Z,67.50
2022-08-05T11:22:08.976Z,61.88
2022-08-05T11:23:10.875Z,61.88
2022-08-05T11:24:29.649Z,56.25
2022-08-05T11:26:02.994Z,56.25
2022-08-05T11:26:10.135Z,61.88
2022-08-05T11:27:08.875Z,61.88
2022-08-05T11:28:08.908Z,61.88
2022-08-05T11:29:13.987Z,61.88
2022-08-05T11:30:10.529Z,67.50
2022-08-05T11:31:08.856Z,73.12
2022-08-05T11:32:08.817Z,73.12
2022-08-05T11:33:13.734Z,78.75
2022-08-05T11:34:09.796Z,78.75
2022-08-05T11:35:09.796Z,84.38
2022-08-05T11:36:09.808Z,84.38
2022-08-05T11:38:29.935Z,84.38
2022-08-05T11:38:30.853Z,90.00
2022-08-05T11:39:09.818Z,90.00
2022-08-05T11:40:08.733Z,90.00
2022-08-05T11:41:35.040Z,84.38
2022-08-05T11:42:09.696Z,84.38
2022-08-05T11:43:09.708Z,84.38
2022-08-05T11:44:08.750Z,90.00
2022-08-05T11:45:14.529Z,95.62
2022-08-05T11:46:15.451Z,90.00
2022-08-05T11:47:15.197Z,84.38
2022-08-05T11:48:11.489Z,78.75
2022-08-05T11:49:10.063Z,73.12
2022-08-05T11:50:08.628Z,73.12
2022-08-05T11:51:08.748Z,73.12
2022-08-05T11:52:11.751Z,84.38
2022-08-05T11:53:09.806Z,90.00
2022-08-05T11:54:08.569Z,90.00
2022-08-05T11:55:10.495Z,95.62
2022-08-05T11:56:08.552Z,101.25
2022-08-05T11:57:24.265Z,101.25
2022-08-05T11:58:12.013Z,101.25
2022-08-05T11:59:13.749Z,101.25
2022-08-05T12:00:09.512Z,106.88
2022-08-05T12:01:10.449Z,106.88
2022-08-05T12:02:24.068Z,106.88
2022-08-05T12:03:09.506Z,101.25
2022-08-05T12:04:08.476Z,101.25
2022-08-05T12:05:18.496Z,101.25
2022-08-05T12:06:09.828Z,106.88
2022-08-05T12:07:09.157Z,106.88
2022-08-05T12:08:11.430Z,101.25
2022-08-05T12:09:08.421Z,95.62
2022-08-05T12:10:11.491Z,101.25
2022-08-05T12:11:08.401Z,106.88
2022-08-05T12:12:08.373Z,106.88
2022-08-05T12:13:15.457Z,101.25
2022-08-05T12:14:10.310Z,101.25
2022-08-05T12:15:08.345Z,101.25
2022-08-05T12:16:14.985Z,101.25
2022-08-05T12:17:57.840Z,101.25
2022-08-05T12:18:11.038Z,101.25
2022-08-05T12:19:08.659Z,101.25
2022-08-05T12:20:26.718Z,95.62
2022-08-05T12:21:09.277Z,106.88
2022-08-05T12:22:09.681Z,101.25
2022-08-05T12:23:08.248Z,106.88
2022-08-05T12:24:08.354Z,106.88
2022-08-05T12:25:08.246Z,101.25
2022-08-05T12:26:09.245Z,101.25
2022-08-05T12:27:09.631Z,106.88
2022-08-05T12:28:09.197Z,129.38
2022-08-05T12:29:09.531Z,95.62
2022-08-05T12:30:08.189Z,84.38
2022-08-05T12:31:08.166Z,129.38
2022-08-05T12:32:09.751Z,78.75
2022-08-05T12:33:27.823Z,123.75
2022-08-05T12:34:09.137Z,78.75
2022-08-05T12:35:09.118Z,118.12
2022-08-05T12:36:09.120Z,123.75
2022-08-05T12:37:08.097Z,118.12
2022-08-05T12:38:08.096Z,112.50
2022-08-05T12:39:08.115Z,123.75
2022-08-05T12:40:10.965Z,123.75
2022-08-05T12:41:12.977Z,118.12
2022-08-05T12:42:09.043Z,106.88
2022-08-05T12:43:08.050Z,90.00
2022-08-05T12:44:11.691Z,73.12
2022-08-05T12:45:09.696Z,106.88
2022-08-05T12:46:08.023Z,123.75
2022-08-05T12:47:12.415Z,61.88
2022-08-05T12:48:27.173Z,118.12
2022-08-05T12:49:13.815Z,118.12
2022-08-05T12:50:10.488Z,118.12
2022-08-05T12:51:07.930Z,123.75
2022-08-05T12:52:13.457Z,118.12
2022-08-05T12:53:08.953Z,129.38
2022-08-05T12:54:16.581Z,140.62
2022-08-05T12:55:08.900Z,140.62
2022-08-05T12:56:07.901Z,146.25
2022-08-05T12:57:09.217Z,151.88
2022-08-05T12:58:38.929Z,146.25
2022-08-05T12:59:13.753Z,140.62
2022-08-05T13:02:02.755Z,118.12
2022-08-05T13:02:04.061Z,140.62
2022-08-05T13:02:10.076Z,140.62
2022-08-05T13:03:07.793Z,157.50
2022-08-05T13:04:07.804Z,168.75